createdAt,value
2024-02-19T00:01:52.154Z,3.70
2024-02-19T00:05:54.375Z,4.23
2024-02-19T00:09:56.026Z,3.50
2024-02-19T00:13:58.243Z,3.40
2024-02-19T00:17:59.840Z,3.40
2024-02-19T00:22:01.358Z,3.10
2024-02-19T00:26:03.296Z,4.07
2024-02-19T00:30:05.884Z,3.60
2024-02-19T00:34:07.384Z,3.70
2024-02-19T00:38:10.188Z,3.87
2024-02-19T00:42:11.572Z,4.20
2024-02-19T00:46:12.998Z,3.40
2024-02-19T00:50:14.535Z,3.83
2024-02-19T00:54:16.164Z,3.10
2024-02-19T00:58:17.758Z,3.77
2024-02-19T01:02:19.379Z,3.10
2024-02-19T01:06:20.886Z,6.20
2024-02-19T01:10:22.351Z,3.20
2024-02-19T01:14:23.835Z,3.77
2024-02-19T01:18:25.393Z,3.60
2024-02-19T01:22:28.203Z,4.60
2024-02-19T01:26:30.720Z,4.00
2024-02-19T01:30:32.367Z,3.50
2024-02-19T01:34:33.922Z,4.60
2024-02-19T01:38:37.034Z,3.50
2024-02-19T01:42:38.699Z,3.40
2024-02-19T01:46:42.850Z,3.97
2024-02-19T01:50:47.152Z,3.57
2024-02-19T01:54:49.327Z,4.20
2024-02-19T01:58:51.849Z,3.80
2024-02-19T02:02:53.717Z,3.53
2024-02-19T02:06:55.380Z,4.10
2024-02-19T02:10:56.940Z,4.50
2024-02-19T02:14:58.435Z,4.33
2024-02-19T02:19:00.086Z,4.10
2024-02-19T02:23:03.160Z,4.80
2024-02-19T02:27:04.850Z,4.33
2024-02-19T02:31:07.461Z,8.53
2024-02-19T02:35:09.063Z,4.60
2024-02-19T02:39:10.485Z,6.13
2024-02-19T02:43:12.076Z,6.10
2024-02-19T02:47:13.421Z,4.60
2024-02-19T02:51:15.364Z,6.33
2024-02-19T02:55:17.010Z,4.90
2024-02-19T02:59:18.489Z,5.00
2024-02-19T03:03:19.832Z,4.13
2024-02-19T03:07:21.939Z,5.00
2024-02-19T03:11:23.616Z,4.37
2024-02-19T03:15:25.065Z,4.13
2024-02-19T03:19:27.506Z,6.07
2024-02-19T03:23:29.010Z,3.90
2024-02-19T03:27:30.294Z,4.00
2024-02-19T03:31:31.850Z,4.17
2024-02-19T03:35:33.236Z,5.57
2024-02-19T03:39:34.586Z,4.40
2024-02-19T03:43:35.968Z,3.93
2024-02-19T03:47:37.356Z,3.47
2024-02-19T03:51:38.874Z,5.17
2024-02-19T03:55:40.459Z,2.90
2024-02-19T03:59:42.143Z,3.23
2024-02-19T04:03:43.744Z,3.00
2024-02-19T04:07:45.232Z,4.20
2024-02-19T04:11:46.890Z,3.50
2024-02-19T04:15:48.213Z,4.60
2024-02-19T04:19:49.648Z,3.93
2024-02-19T04:23:51.169Z,3.63
2024-02-19T04:27:53.402Z,5.93
2024-02-19T04:31:54.756Z,4.17
2024-02-19T04:35:56.201Z,3.80
2024-02-19T04:39:57.508Z,4.20
2024-02-19T04:43:58.796Z,3.50
2024-02-19T04:48:00.494Z,4.67
2024-02-19T04:52:02.447Z,3.97
2024-02-19T04:56:04.807Z,3.90
2024-02-19T05:00:07.301Z,4.27
2024-02-19T05:04:08.714Z,4.60
2024-02-19T05:08:10.188Z,5.40
2024-02-19T05:12:11.513Z,8.00
2024-02-19T05:16:12.885Z,5.03
2024-02-19T05:20:14.326Z,5.13
2024-02-19T05:24:17.867Z,6.43
2024-02-19T05:28:19.298Z,5.67
2024-02-19T05:32:20.813Z,5.33
2024-02-19T05:36:22.198Z,5.43
2024-02-19T05:40:23.885Z,7.97
2024-02-19T05:44:25.515Z,4.13
2024-02-19T05:48:26.976Z,6.60
2024-02-19T05:52:28.986Z,7.70
2024-02-19T05:56:30.494Z,5.13
2024-02-19T06:00:31.822Z,5.27
2024-02-19T06:04:33.372Z,5.20
2024-02-19T06:08:34.871Z,5.57
2024-02-19T06:12:37.373Z,6.70
2024-02-19T06:16:38.768Z,7.40
2024-02-19T06:20:40.089Z,6.10
2024-02-19T06:24:41.483Z,4.80
2024-02-19T06:28:42.865Z,5.60
2024-02-19T06:32:44.383Z,5.37
2024-02-19T06:36:45.797Z,4.27
2024-02-19T06:40:47.465Z,5.17
2024-02-19T06:44:48.805Z,8.63
2024-02-19T06:48:50.679Z,6.30
2024-02-19T06:52:52.323Z,7.80
2024-02-19T06:56:53.619Z,6.33
2024-02-19T07:00:55.032Z,10.27
2024-02-19T07:04:56.783Z,6.47
2024-02-19T07:08:58.340Z,6.13
2024-02-19T07:13:00.160Z,5.77
2024-02-19T07:17:01.537Z,7.13
2024-02-19T07:21:02.961Z,5.20
2024-02-19T07:25:13.581Z,6.60
2024-02-19T07:29:08.255Z,4.63
2024-02-19T07:33:09.700Z,8.60
2024-02-19T07:37:11.215Z,9.30
2024-02-19T07:41:16.375Z,6.43
2024-02-19T07:45:17.897Z,7.00
2024-02-19T07:49:19.276Z,5.03
2024-02-19T07:53:20.636Z,6.03
2024-02-19T07:57:22.951Z,4.83
2024-02-19T08:01:24.446Z,5.20
2024-02-19T08:05:25.861Z,4.43
2024-02-19T08:09:27.345Z,4.73
2024-02-19T08:13:28.882Z,5.70
2024-02-19T08:17:31.063Z,7.27
2024-02-19T08:21:32.362Z,4.87
2024-02-19T08:25:34.402Z,6.63
2024-02-19T08:29:35.902Z,7.10
2024-02-19T08:33:37.374Z,4.70
2024-02-19T08:37:38.864Z,5.60
2024-02-19T08:41:40.298Z,6.10
2024-02-19T08:45:42.190Z,12.70
2024-02-19T08:49:44.088Z,6.63
2024-02-19T08:53:47.703Z,4.50
2024-02-19T08:57:48.913Z,5.60
2024-02-19T09:01:50.360Z,10.80
2024-02-19T09:05:51.858Z,5.70
2024-02-19T09:09:53.441Z,5.47
2024-02-19T09:13:54.945Z,6.10
2024-02-19T09:17:56.455Z,6.90
2024-02-19T09:21:57.905Z,6.00
2024-02-19T09:25:59.310Z,5.60
2024-02-19T09:30:00.794Z,5.63
2024-02-19T09:34:02.224Z,5.50
2024-02-19T09:38:03.912Z,8.30
2024-02-19T09:42:05.735Z,5.60
2024-02-19T09:46:10.925Z,6.17
2024-02-19T09:50:15.326Z,5.90
2024-02-19T09:54:16.849Z,6.20
2024-02-19T09:58:18.430Z,7.90
2024-02-19T10:02:20.190Z,4.97
2024-02-19T10:06:23.505Z,6.37
2024-02-19T10:10:25.606Z,5.43
2024-02-19T10:14:27.672Z,10.40
2024-02-19T10:18:29.128Z,7.53
2024-02-19T10:22:30.554Z,6.00
2024-02-19T10:26:32.009Z,4.33
2024-02-19T10:30:33.385Z,4.10
2024-02-19T10:34:35.220Z,5.10
2024-02-19T10:38:36.771Z,4.20
2024-02-19T10:42:39.107Z,4.03
2024-02-19T10:46:41.084Z,6.30
2024-02-19T10:50:42.521Z,4.50
2024-02-19T10:54:45.256Z,4.87
2024-02-19T10:58:54.781Z,5.70
2024-02-19T11:03:06.380Z,5.23
2024-02-19T11:07:08.977Z,4.93
2024-02-19T11:11:10.749Z,4.50
2024-02-19T11:15:16.754Z,5.20
2024-02-19T11:19:22.388Z,8.50
2024-02-19T11:23:27.253Z,6.20
2024-02-19T11:27:28.917Z,4.50
2024-02-19T11:31:30.512Z,4.63
2024-02-19T11:35:36.555Z,7.50
2024-02-19T11:39:38.823Z,6.87
2024-02-19T11:43:40.799Z,10.17
2024-02-19T11:47:43.123Z,19.00
2024-02-19T11:51:51.636Z,10.20
2024-02-19T11:55:59.926Z,7.40
2024-02-19T12:00:03.944Z,5.73
2024-02-19T12:04:07.233Z,9.63
2024-02-19T12:08:09.509Z,5.00
2024-02-19T12:12:10.911Z,4.57
2024-02-19T12:16:12.291Z,4.23
2024-02-19T12:20:14.862Z,4.53
2024-02-19T12:24:17.048Z,8.00
2024-02-19T12:28:19.616Z,4.73
2024-02-19T12:32:23.036Z,5.50
2024-02-19T12:36:25.116Z,6.90
2024-02-19T12:40:27.791Z,5.13
2024-02-19T12:44:30.514Z,6.17
2024-02-19T12:48:34.887Z,5.23
2024-02-19T12:52:37.052Z,5.23
2024-02-19T12:56:40.495Z,5.97
2024-02-19T13:00:43.156Z,4.23
2024-02-19T13:04:46.228Z,7.50
2024-02-19T13:08:50.540Z,5.80
2024-02-19T13:12:52.495Z,4.10
2024-02-19T13:17:02.559Z,6.97
2024-02-19T13:20:58.139Z,4.37
2024-02-19T13:25:00.015Z,8.27
2024-02-19T13:29:03.039Z,5.47
2024-02-19T13:33:06.822Z,5.43
2024-02-19T13:37:08.293Z,6.33
2024-02-19T13:41:09.885Z,6.70
2024-02-19T13:45:11.271Z,6.90
2024-02-19T13:49:12.816Z,5.10
2024-02-19T13:53:14.278Z,5.37
2024-02-19T13:57:16.134Z,10.13
2024-02-19T14:01:17.563Z,6.30
2024-02-19T14:05:19.443Z,17.40
2024-02-19T14:09:21.385Z,7.17
2024-02-19T14:13:23.724Z,6.30
2024-02-19T14:17:25.137Z,6.30
2024-02-19T14:21:26.689Z,9.20
2024-02-19T14:25:28.116Z,5.90
2024-02-19T14:29:31.599Z,6.63
2024-02-19T14:33:33.126Z,8.30
2024-02-19T14:37:41.568Z,6.70
2024-02-19T14:41:43.902Z,7.03
2024-02-19T14:45:45.905Z,10.30
2024-02-19T14:49:49.026Z,8.60
2024-02-19T14:53:53.051Z,9.30
2024-02-19T14:57:54.672Z,6.90
2024-02-19T15:01:57.146Z,11.73
2024-02-19T15:06:00.032Z,10.50
2024-02-19T15:10:02.723Z,8.40
2024-02-19T15:14:05.462Z,10.03
2024-02-19T15:18:08.605Z,5.83
2024-02-19T15:22:11.256Z,5.97
2024-02-19T15:26:15.107Z,6.80
2024-02-19T15:30:16.705Z,8.13
2024-02-19T15:34:18.634Z,8.93
2024-02-19T15:38:20.756Z,11.43
2024-02-19T15:42:23.341Z,12.83
2024-02-19T15:46:26.218Z,8.37
2024-02-19T15:50:28.378Z,10.63
2024-02-19T15:54:30.441Z,7.53
2024-02-19T15:58:35.727Z,9.90
2024-02-19T16:02:39.533Z,8.03
2024-02-19T16:06:42.083Z,8.47
2024-02-19T16:10:45.696Z,10.30
2024-02-19T16:14:47.426Z,12.70
2024-02-19T16:18:49.367Z,13.17
2024-02-19T16:22:53.332Z,9.90
2024-02-19T16:26:55.017Z,11.77
2024-02-19T16:30:58.286Z,11.20
2024-02-19T16:35:00.349Z,11.30
2024-02-19T16:39:02.655Z,11.50
2024-02-19T16:43:07.868Z,10.47
2024-02-19T16:47:09.915Z,11.60
2024-02-19T16:51:12.493Z,9.63
2024-02-19T16:55:15.536Z,9.37
2024-02-19T16:59:17.481Z,10.63
2024-02-19T17:03:19.874Z,12.13
2024-02-19T17:07:23.206Z,14.50
2024-02-19T17:11:25.511Z,12.90
2024-02-19T17:15:26.836Z,12.60
2024-02-19T17:19:28.275Z,13.40
2024-02-19T17:23:29.718Z,15.45
2024-02-19T17:27:31.133Z,10.77
2024-02-19T17:31:33.548Z,13.77
2024-02-19T17:35:36.807Z,11.00
2024-02-19T17:39:38.120Z,15.57
2024-02-19T17:43:39.838Z,11.70
2024-02-19T17:47:41.143Z,12.20
2024-02-19T17:51:42.472Z,10.50
2024-02-19T17:55:45.409Z,9.83
2024-02-19T17:59:46.811Z,12.93
2024-02-19T18:03:48.246Z,10.97
2024-02-19T18:07:49.697Z,11.67
2024-02-19T18:11:51.075Z,14.47
2024-02-19T18:15:52.594Z,11.83
2024-02-19T18:19:55.411Z,11.87
2024-02-19T18:23:59.287Z,13.57
2024-02-19T18:28:01.478Z,11.33
2024-02-19T18:32:03.156Z,13.00
2024-02-19T18:36:06.959Z,12.33
2024-02-19T18:40:09.088Z,12.43
2024-02-19T18:44:10.480Z,10.93
2024-02-19T18:48:11.813Z,17.20
2024-02-19T18:52:13.162Z,12.23
2024-02-19T18:56:15.210Z,11.30
2024-02-19T19:00:18.136Z,9.83
2024-02-19T19:04:19.560Z,12.57
2024-02-19T19:08:20.990Z,13.60
2024-02-19T19:12:22.372Z,13.00
2024-02-19T19:16:23.811Z,12.37
2024-02-19T19:20:25.703Z,10.67
2024-02-19T19:24:27.093Z,13.03
2024-02-19T19:28:28.516Z,12.53
2024-02-19T19:32:30.627Z,13.50
2024-02-19T19:36:32.071Z,10.13
2024-02-19T19:40:33.549Z,13.17
2024-02-19T19:44:34.904Z,10.80
2024-02-19T19:48:36.400Z,12.63
2024-02-19T19:52:37.901Z,13.60
2024-02-19T19:56:40.941Z,13.93
2024-02-19T20:00:43.528Z,9.93
2024-02-19T20:04:48.342Z,11.87
2024-02-19T20:08:50.688Z,10.20
2024-02-19T20:12:54.178Z,11.30
2024-02-19T20:16:55.469Z,10.20
2024-02-19T20:20:56.903Z,7.77
2024-02-19T20:24:58.373Z,8.10
2024-02-19T20:28:59.622Z,7.00
2024-02-19T20:33:02.952Z,7.70
2024-02-19T20:37:04.343Z,6.70
2024-02-19T20:41:05.636Z,6.97
2024-02-19T20:45:08.610Z,5.23
2024-02-19T20:49:10.027Z,4.33
2024-02-19T20:53:13.233Z,4.80
2024-02-19T20:57:14.545Z,3.57
2024-02-19T21:01:16.018Z,4.60
2024-02-19T21:05:19.583Z,4.53
2024-02-19T21:09:21.211Z,4.70
2024-02-19T21:13:22.873Z,3.80
2024-02-19T21:17:26.107Z,5.27
2024-02-19T21:21:34.440Z,4.40
2024-02-19T21:25:31.796Z,4.40
2024-02-19T21:29:33.143Z,4.80
2024-02-19T21:33:34.518Z,3.50
2024-02-19T21:37:35.911Z,4.63
2024-02-19T21:41:37.169Z,4.03
2024-02-19T21:45:38.728Z,3.87
2024-02-19T21:49:41.932Z,4.20
2024-02-19T21:53:43.205Z,4.93
2024-02-19T21:57:44.541Z,4.40
2024-02-19T22:01:45.915Z,4.70
2024-02-19T22:05:47.404Z,4.23
2024-02-19T22:09:51.089Z,4.00
2024-02-19T22:13:52.513Z,5.63
2024-02-19T22:17:53.896Z,4.37
2024-02-19T22:21:57.208Z,3.87
2024-02-19T22:25:58.651Z,5.33
2024-02-19T22:30:00.804Z,5.50
2024-02-19T22:34:02.236Z,5.47
2024-02-19T22:38:03.868Z,4.50
2024-02-19T22:42:05.533Z,5.27
2024-02-19T22:46:06.900Z,5.33
2024-02-19T22:50:08.620Z,6.10
2024-02-19T22:54:10.093Z,4.87
2024-02-19T22:58:15.476Z,5.70
2024-02-19T23:02:16.649Z,4.80
2024-02-19T23:06:18.160Z,6.23
2024-02-19T23:10:19.544Z,6.00
2024-02-19T23:14:20.986Z,6.90
2024-02-19T23:18:22.678Z,5.90
2024-02-19T23:22:24.286Z,5.77
2024-02-19T23:26:25.756Z,5.87
2024-02-19T23:30:29.005Z,4.47
2024-02-19T23:34:30.872Z,4.60
2024-02-19T23:38:34.167Z,5.10
2024-02-19T23:42:35.462Z,6.90
2024-02-19T23:46:36.920Z,5.53
2024-02-19T23:50:38.271Z,5.80
2024-02-19T23:54:40.440Z,10.07
2024-02-19T23:58:42.007Z,6.67
